Time;durP1;ratioP1;P1;durP2;ratioP2;P2;SDS_P1;SDS_P2;PMS_P1;PMS_P2;Temp;Humidity;BMP_temperature;BMP_pressure;BME280_temperature;BME280_humidity;BME280_pressure;Samples;Min_cycle;Max_cycle;Signal;HPM_P1;HPM_P2
2023/10/26 00:02:00;;;;;;;12.88;10.50;;;;;;;8.88;100.00;99681.53;5092355;28;20044;-77
2023/10/26 00:04:26;;;;;;;15.40;11.02;;;;;;;8.88;100.00;99686.84;5092635;28;20045;-77
2023/10/26 00:06:53;;;;;;;16.10;11.23;;;;;;;8.88;100.00;99690.22;5092711;28;20083;-77
2023/10/26 00:09:19;;;;;;;12.88;10.63;;;;;;;8.89;100.00;99704.97;5092693;28;20048;-77
2023/10/26 00:11:49;;;;;;;13.80;11.13;;;;;;;8.88;100.00;99700.84;5092844;28;20549;-77
2023/10/26 00:14:16;;;;;;;13.55;11.00;;;;;;;8.88;100.00;99702.75;5090951;28;20525;-78
2023/10/26 00:16:42;;;;;;;13.88;10.65;;;;;;;8.86;100.00;99700.56;5090933;28;20131;-77
2023/10/26 00:19:09;;;;;;;13.85;10.77;;;;;;;8.88;100.00;99700.09;5092009;28;20133;-77
2023/10/26 00:21:35;;;;;;;15.10;11.05;;;;;;;8.86;100.00;99694.50;5092443;28;20506;-77
2023/10/26 00:24:02;;;;;;;13.40;11.45;;;;;;;8.85;100.00;99695.69;5092332;28;20055;-77
2023/10/26 00:26:29;;;;;;;15.75;11.60;;;;;;;8.85;100.00;99696.44;5092253;28;20094;-77
2023/10/26 00:28:55;;;;;;;14.65;11.50;;;;;;;8.85;100.00;99688.47;5091896;28;20052;-77
2023/10/26 00:31:22;;;;;;;14.20;11.07;;;;;;;8.84;100.00;99692.31;5090766;28;20059;-77
2023/10/26 00:33:48;;;;;;;17.33;10.98;;;;;;;8.83;100.00;99692.75;5090949;28;20057;-77
2023/10/26 00:36:15;;;;;;;14.27;11.35;;;;;;;8.83;100.00;99698.06;5092552;28;20136;-77
2023/10/26 00:38:42;;;;;;;17.67;11.80;;;;;;;8.83;100.00;99706.03;5090711;28;20198;-77
2023/10/26 00:41:09;;;;;;;13.68;11.35;;;;;;;8.82;100.00;99707.22;5091856;28;20048;-77
2023/10/26 00:43:35;;;;;;;16.00;11.40;;;;;;;8.81;100.00;99705.75;5095010;28;20067;-77
2023/10/26 00:46:03;;;;;;;14.23;11.45;;;;;;;8.80;100.00;99712.97;5094251;28;20054;-77
2023/10/26 00:48:31;;;;;;;13.93;11.13;;;;;;;8.80;100.00;99715.63;5095805;28;20120;-77
2023/10/26 00:50:58;;;;;;;13.98;11.45;;;;;;;8.79;100.00;99713.44;5095553;28;20425;-77
2023/10/26 00:53:24;;;;;;;12.68;11.18;;;;;;;8.77;100.00;99716.56;5094010;28;20135;-77
2023/10/26 00:55:52;;;;;;;15.43;11.02;;;;;;;8.76;100.00;99717.00;5095793;28;20049;-77
2023/10/26 00:58:21;;;;;;;13.93;10.82;;;;;;;8.72;100.00;99719.81;5094957;28;20036;-77
2023/10/26 01:00:48;;;;;;;12.75;10.63;;;;;;;8.69;100.00;99726.75;5095431;28;20044;-77
2023/10/26 01:03:15;;;;;;;13.65;10.82;;;;;;;8.67;100.00;99726.47;5077080;28;20120;-77
2023/10/26 01:05:42;;;;;;;16.42;12.13;;;;;;;8.67;100.00;99734.44;5093896;28;20521;-76
2023/10/26 01:08:08;;;;;;;16.48;12.48;;;;;;;8.66;100.00;99729.56;5095094;28;20083;-76
2023/10/26 01:10:35;;;;;;;21.23;12.35;;;;;;;8.66;100.00;99734.88;5093914;28;20573;-76
2023/10/26 01:13:04;;;;;;;16.55;11.25;;;;;;;8.67;100.00;99736.34;5094770;28;20043;-76
2023/10/26 01:15:30;;;;;;;15.95;11.68;;;;;;;8.68;100.00;99737.81;5093701;28;20126;-76
2023/10/26 01:17:57;;;;;;;14.38;11.43;;;;;;;8.68;100.00;99737.81;5094976;28;20418;-76
2023/10/26 01:20:24;;;;;;;14.35;11.65;;;;;;;8.68;100.00;99740.47;5093425;28;20138;-77
2023/10/26 01:22:50;;;;;;;18.90;12.27;;;;;;;8.67;100.00;99742.41;5077254;28;20514;-77
2023/10/26 01:25:17;;;;;;;15.98;11.65;;;;;;;8.66;100.00;99748.88;5093538;28;20052;-77
2023/10/26 01:27:43;;;;;;;15.90;12.15;;;;;;;8.68;100.00;99748.44;5075984;28;20409;-76
2023/10/26 01:30:12;;;;;;;14.82;11.70;;;;;;;8.67;100.00;99753.00;5093575;28;20063;-77
2023/10/26 01:32:39;;;;;;;16.10;12.35;;;;;;;8.68;100.00;99749.16;5072664;28;20569;-76
2023/10/26 01:35:06;;;;;;;18.30;12.63;;;;;;;8.69;100.00;99757.88;5089834;28;20050;-76
2023/10/26 01:37:32;;;;;;;13.77;11.73;;;;;;;8.69;100.00;99755.22;5074219;28;20044;-76
2023/10/26 01:39:59;;;;;;;15.50;12.55;;;;;;;8.69;100.00;99753.28;5089848;28;20056;-77
2023/10/26 01:42:25;;;;;;;18.38;12.38;;;;;;;8.69;100.00;99760.53;5089359;28;20041;-76
2023/10/26 01:44:52;;;;;;;17.83;12.20;;;;;;;8.68;100.00;99746.53;5090053;28;20083;-76
2023/10/26 01:47:19;;;;;;;17.05;12.63;;;;;;;8.68;100.00;99746.53;5074608;28;20134;-78
2023/10/26 01:49:45;;;;;;;15.93;12.95;;;;;;;8.67;100.00;99742.41;5090200;28;20438;-76
2023/10/26 01:52:12;;;;;;;17.38;12.65;;;;;;;8.69;100.00;99748.00;5072314;28;20390;-76
2023/10/26 01:54:38;;;;;;;16.77;13.02;;;;;;;8.71;100.00;99742.22;5089473;28;20085;-76
2023/10/26 01:57:05;;;;;;;15.27;12.25;;;;;;;8.72;100.00;99741.06;5071847;28;20057;-76
2023/10/26 01:59:31;;;;;;;16.85;12.40;;;;;;;8.71;100.00;99741.50;5072839;28;20110;-76
2023/10/26 02:01:58;;;;;;;16.38;12.73;;;;;;;8.70;100.00;99748.72;5074237;28;20528;-76
2023/10/26 02:04:25;;;;;;;15.15;12.90;;;;;;;8.71;100.00;99742.22;5089195;28;20131;-76
2023/10/26 02:06:51;;;;;;;14.43;12.15;;;;;;;8.71;100.00;99746.81;5089825;28;20048;-77
2023/10/26 02:09:18;;;;;;;24.05;12.65;;;;;;;8.73;100.00;99747.81;5089607;28;20141;-77
2023/10/26 02:11:45;;;;;;;13.95;12.30;;;;;;;8.72;100.00;99737.66;5072214;28;20494;-77
2023/10/26 02:14:12;;;;;;;14.45;12.93;;;;;;;8.73;100.00;99737.22;5073995;28;20474;-77
2023/10/26 02:16:38;;;;;;;19.00;12.48;;;;;;;8.75;100.00;99739.41;5072413;28;20052;-77
2023/10/26 02:19:05;;;;;;;16.48;12.02;;;;;;;8.74;100.00;99744.00;5089658;28;20139;-77
2023/10/26 02:21:31;;;;;;;13.65;12.13;;;;;;;8.74;100.00;99736.03;5074033;28;20041;-78
2023/10/26 02:23:58;;;;;;;16.55;12.40;;;;;;;8.75;100.00;99734.84;5073939;28;20103;-77
2023/10/26 02:26:25;;;;;;;15.20;12.10;;;;;;;8.76;100.00;99733.66;5073487;28;20041;-77
2023/10/26 02:28:51;;;;;;;15.75;12.65;;;;;;;8.76;100.00;99738.97;5072631;28;20057;-78
2023/10/26 02:31:18;;;;;;;15.77;11.45;;;;;;;8.77;100.00;99740.44;5074183;28;20045;-77
2023/10/26 02:33:46;;;;;;;15.80;11.90;;;;;;;8.77;100.00;99734.41;5074187;28;20041;-77
2023/10/26 02:36:13;;;;;;;13.57;11.80;;;;;;;8.77;100.00;99739.72;5073694;28;20076;-77
2023/10/26 02:38:39;;;;;;;14.55;11.80;;;;;;;8.76;100.00;99732.94;5073546;28;20514;-77
2023/10/26 02:41:07;;;;;;;14.88;11.77;;;;;;;8.76;100.00;99735.59;5088845;28;20494;-77
2023/10/26 02:43:33;;;;;;;15.93;12.13;;;;;;;8.77;100.00;99737.06;5088885;28;20464;-77
2023/10/26 02:46:02;;;;;;;21.05;12.90;;;;;;;8.79;100.00;99737.34;5089425;28;20081;-76
2023/10/26 02:48:28;;;;;;;15.25;12.40;;;;;;;8.79;100.00;99743.38;5073186;28;20045;-76
2023/10/26 02:50:55;;;;;;;14.18;12.00;;;;;;;8.79;100.00;99743.38;5088768;28;20071;-76
2023/10/26 02:53:22;;;;;;;16.27;12.98;;;;;;;8.82;100.00;99752.34;5072848;28;20037;-76
2023/10/26 02:55:49;;;;;;;18.65;12.05;;;;;;;8.81;100.00;99754.25;5071585;28;20132;-77
2023/10/26 02:58:15;;;;;;;15.85;11.77;;;;;;;8.80;100.00;99750.13;5088670;28;20596;-76
2023/10/26 03:00:42;;;;;;;16.85;12.55;;;;;;;8.82;100.00;99750.41;5088698;28;20049;-76
2023/10/26 03:03:09;;;;;;;16.08;12.18;;;;;;;8.83;100.00;99743.19;5072784;28;20049;-76
2023/10/26 03:05:38;;;;;;;15.88;12.48;;;;;;;8.83;100.00;99738.63;5072034;28;20566;-76
2023/10/26 03:08:05;;;;;;;15.43;12.85;;;;;;;8.84;100.00;99742.75;5072572;28;20136;-76
2023/10/26 03:10:31;;;;;;;16.52;11.50;;;;;;;8.85;100.00;99738.16;5088790;28;20107;-77
2023/10/26 03:12:59;;;;;;;16.88;13.40;;;;;;;8.87;100.00;99741.84;5073175;28;20045;-76
2023/10/26 03:15:26;;;;;;;16.88;13.40;;;;;;;8.88;100.00;99739.91;5071661;28;20421;-76
2023/10/26 03:17:52;;;;;;;19.33;13.48;;;;;;;8.89;100.00;99730.78;5088336;28;20069;-76
2023/10/26 03:20:19;;;;;;;20.15;12.80;;;;;;;8.91;100.00;99723.09;5071835;28;20041;-76
2023/10/26 03:22:45;;;;;;;18.08;13.07;;;;;;;8.90;100.00;99711.00;5088189;28;20418;-78
2023/10/26 03:25:13;;;;;;;20.95;13.55;;;;;;;8.90;100.00;99722.34;5088350;28;20517;-77
2023/10/26 03:27:41;;;;;;;17.60;13.50;;;;;;;8.89;100.00;99726.19;5071392;28;20045;-76
2023/10/26 03:30:09;;;;;;;16.48;13.45;;;;;;;8.89;100.00;99731.50;5072593;28;20088;-76
2023/10/26 03:32:35;;;;;;;16.92;13.20;;;;;;;8.88;100.00;99724.72;5088513;28;20059;-76
2023/10/26 03:35:03;;;;;;;18.83;13.63;;;;;;;8.88;100.00;99734.59;5072906;28;20095;-76
2023/10/26 03:37:30;;;;;;;16.67;12.55;;;;;;;8.89;100.00;99734.16;5087971;28;20049;-76
2023/10/26 03:39:56;;;;;;;16.88;12.88;;;;;;;8.89;100.00;99725.47;5072707;28;20045;-76
2023/10/26 03:42:23;;;;;;;22.02;13.40;;;;;;;8.88;100.00;99724.72;5072785;28;20109;-76
2023/10/26 03:44:50;;;;;;;16.48;12.50;;;;;;;8.89;100.00;99720.88;5071354;28;20107;-76
2023/10/26 03:47:18;;;;;;;24.25;12.80;;;;;;;8.89;100.00;99720.16;5087746;28;20502;-77
2023/10/26 03:49:46;;;;;;;102.50;13.55;;;;;;;8.89;100.00;99717.50;5088406;28;20049;-77
2023/10/26 03:52:14;;;;;;;22.23;13.68;;;;;;;8.89;100.00;99726.19;5087523;28;20045;-77
2023/10/26 03:54:41;;;;;;;27.80;12.43;;;;;;;8.90;100.00;99732.25;5071061;28;20072;-77
2023/10/26 03:57:08;;;;;;;27.60;13.23;;;;;;;8.89;100.00;99731.50;5087613;28;20493;-77
2023/10/26 03:59:35;;;;;;;52.33;12.75;;;;;;;8.89;100.00;99725.47;5087904;28;20044;-76
2023/10/26 04:02:02;;;;;;;42.10;12.30;;;;;;;8.90;100.00;99724.28;5070977;28;20053;-76
2023/10/26 04:04:29;;;;;;;79.07;12.95;;;;;;;8.89;100.00;99720.16;5072144;28;20624;-77
2023/10/26 04:06:56;;;;;;;108.47;14.27;;;;;;;8.87;100.00;99717.94;5087385;28;20132;-76
2023/10/26 04:09:23;;;;;;;73.20;12.82;;;;;;;8.88;100.00;99726.66;5072281;28;20136;-76
2023/10/26 04:11:49;;;;;;;93.80;12.93;;;;;;;8.86;100.00;99735.06;5072473;28;20502;-76
2023/10/26 04:14:16;;;;;;;20.27;12.43;;;;;;;8.87;100.00;99743.75;5087930;28;20049;-76
2023/10/26 04:16:47;;;;;;;25.08;12.88;;;;;;;8.86;100.00;99732.41;5087250;28;20052;-76
2023/10/26 04:19:14;;;;;;;86.28;13.20;;;;;;;8.86;100.00;99732.41;5070781;28;20049;-76
2023/10/26 04:21:40;;;;;;;79.32;12.63;;;;;;;8.83;100.00;99735.97;5087388;28;20485;-76
2023/10/26 04:24:07;;;;;;;75.38;12.85;;;;;;;8.82;100.00;99729.19;5087446;28;20140;-77
2023/10/26 04:26:34;;;;;;;83.35;13.50;;;;;;;8.83;100.00;99730.66;5087265;28;20056;-77
2023/10/26 04:29:00;;;;;;;68.32;12.25;;;;;;;8.81;100.00;99730.38;5071867;28;20521;-76
2023/10/26 04:31:27;;;;;;;73.05;12.50;;;;;;;8.81;100.00;99721.66;5071965;28;20044;-77
2023/10/26 04:33:53;;;;;;;78.15;12.55;;;;;;;8.80;100.00;99720.94;5071919;28;20568;-77
2023/10/26 04:36:23;;;;;;;53.95;11.82;;;;;;;8.81;100.00;99719.00;5087163;28;20049;-76
2023/10/26 04:38:50;;;;;;;99.68;12.20;;;;;;;8.80;100.00;99712.25;5071865;28;20087;-76
2023/10/26 04:41:16;;;;;;;52.03;12.75;;;;;;;8.79;100.00;99716.09;5071806;28;20045;-76
2023/10/26 04:43:43;;;;;;;38.78;11.98;;;;;;;8.78;100.00;99710.06;5087161;28;20053;-77
2023/10/26 04:46:10;;;;;;;69.57;11.98;;;;;;;8.79;100.00;99706.22;5071442;28;20159;-76
2023/10/26 04:48:36;;;;;;;29.63;12.55;;;;;;;8.81;100.00;99708.41;5071820;28;20045;-77
2023/10/26 04:51:03;;;;;;;55.90;12.70;;;;;;;8.80;100.00;99705.00;5083542;28;20075;-77
2023/10/26 04:53:30;;;;;;;48.17;12.10;;;;;;;8.80;100.00;99701.63;5090492;28;20056;-77
2023/10/26 04:55:56;;;;;;;41.78;11.32;;;;;;;8.79;100.00;99700.91;5091758;28;20057;-76
2023/10/26 04:58:23;;;;;;;92.53;12.32;;;;;;;8.79;100.00;99694.88;5091895;28;20043;-76
2023/10/26 05:00:49;;;;;;;50.42;12.63;;;;;;;8.76;100.00;99706.41;5092163;28;20048;-76
2023/10/26 05:03:16;;;;;;;107.78;13.93;;;;;;;8.76;100.00;99703.75;5090497;28;20546;-77
2023/10/26 05:05:43;;;;;;;41.63;12.57;;;;;;;8.78;100.00;99706.69;5091158;28;20114;-76
2023/10/26 05:08:09;;;;;;;45.55;11.93;;;;;;;8.78;100.00;99710.06;5092142;28;20521;-77
2023/10/26 05:10:36;;;;;;;54.28;12.18;;;;;;;8.77;100.00;99708.59;5091944;28;20490;-77
2023/10/26 05:13:03;;;;;;;67.35;12.95;;;;;;;8.79;100.00;99718.75;5091848;28;20044;-77
2023/10/26 05:15:30;;;;;;;45.00;12.07;;;;;;;8.79;100.00;99714.19;5091826;28;20044;-77
2023/10/26 05:17:57;;;;;;;39.55;12.07;;;;;;;8.81;100.00;99708.41;5091668;28;20090;-77
2023/10/26 05:20:24;;;;;;;34.45;12.45;;;;;;;8.81;100.00;99706.47;5091093;28;20187;-78
2023/10/26 05:22:50;;;;;;;23.55;11.93;;;;;;;8.82;100.00;99705.28;5091982;28;20044;-77
2023/10/26 05:25:17;;;;;;;38.28;12.77;;;;;;;8.83;100.00;99706.78;5091783;28;20057;-77
2023/10/26 05:27:44;;;;;;;36.75;12.35;;;;;;;8.84;100.00;99704.84;5073788;28;20053;-77
2023/10/26 05:30:10;;;;;;;32.97;12.95;;;;;;;8.84;100.00;99713.53;5095113;28;20123;-77
2023/10/26 05:32:38;;;;;;;32.05;12.13;;;;;;;8.84;100.00;99700.28;5094920;28;20115;-77
2023/10/26 05:35:05;;;;;;;82.68;13.13;;;;;;;8.83;100.00;99700.72;5094545;28;20045;-77
2023/10/26 05:37:32;;;;;;;69.38;11.63;;;;;;;8.79;100.00;99690.31;5094715;28;20110;-77
2023/10/26 05:39:59;;;;;;;113.93;13.07;;;;;;;8.78;100.00;99690.75;5094549;28;20098;-77
2023/10/26 05:42:25;;;;;;;28.40;11.93;;;;;;;8.77;100.00;99692.69;5093417;28;20055;-76
2023/10/26 05:44:55;;;;;;;19.10;10.85;;;;;;;8.80;100.00;99694.41;5095090;28;20124;-76
2023/10/26 05:47:22;;;;;;;48.53;12.30;;;;;;;8.80;100.00;99691.00;5094095;28;20170;-76
2023/10/26 05:49:49;;;;;;;74.82;12.93;;;;;;;8.80;100.00;99685.69;5094710;28;20043;-76
2023/10/26 05:52:16;;;;;;;48.70;11.85;;;;;;;8.80;100.00;99683.78;5093186;28;20106;-76
2023/10/26 05:54:42;;;;;;;85.93;12.25;;;;;;;8.80;100.00;99680.41;5094659;28;20040;-76
2023/10/26 05:57:09;;;;;;;41.28;11.75;;;;;;;8.78;100.00;99667.59;5094374;28;20052;-78
2023/10/26 05:59:36;;;;;;;33.45;12.00;;;;;;;8.77;100.00;99676.03;5092944;28;20044;-75
2023/10/26 06:02:02;;;;;;;43.80;12.43;;;;;;;8.78;100.00;99672.19;5093985;28;20079;-75
2023/10/26 06:04:29;;;;;;;53.97;12.15;;;;;;;8.76;100.00;99675.28;5092604;28;20063;-74
2023/10/26 06:06:55;;;;;;;82.03;12.20;;;;;;;8.74;100.00;99676.91;5094691;28;20436;-76
2023/10/26 06:09:23;;;;;;;73.68;11.27;;;;;;;8.70;100.00;99671.78;5093090;28;20521;-77
2023/10/26 06:11:51;;;;;;;42.17;11.15;;;;;;;8.70;100.00;99679.75;5094954;28;20611;-78
2023/10/26 06:14:18;;;;;;;74.00;11.48;;;;;;;8.70;100.00;99679.75;5094711;28;20079;-76
2023/10/26 06:16:45;;;;;;;18.48;10.88;;;;;;;8.70;100.00;99685.03;5094081;28;20045;-76
2023/10/26 06:19:11;;;;;;;32.60;10.30;;;;;;;8.69;100.00;99684.31;5094508;28;20090;-77
2023/10/26 06:21:38;;;;;;;89.55;11.95;;;;;;;8.67;100.00;99689.34;5093092;28;20052;-76
2023/10/26 06:24:06;;;;;;;81.10;11.55;;;;;;;8.65;100.00;99699.66;5094259;28;20087;-77
2023/10/26 06:26:33;;;;;;;54.38;11.25;;;;;;;8.65;100.00;99689.06;5094200;28;20077;-76
2023/10/26 06:29:00;;;;;;;103.47;11.82;;;;;;;8.64;100.00;99687.59;5093275;28;20098;-77
2023/10/26 06:31:27;;;;;;;69.13;11.05;;;;;;;8.61;100.00;99693.06;5093305;28;20466;-75
2023/10/26 06:33:53;;;;;;;66.22;11.23;;;;;;;8.59;100.00;99698.81;5093866;28;20126;-78
2023/10/26 06:36:20;;;;;;;116.18;11.38;;;;;;;8.58;100.00;99701.91;5092201;28;20144;-77
2023/10/26 06:38:47;;;;;;;70.07;11.68;;;;;;;8.56;100.00;99702.34;5094042;28;20533;-79
2023/10/26 06:41:13;;;;;;;81.45;11.23;;;;;;;8.57;100.00;99703.09;5092638;28;20486;-79
2023/10/26 06:43:40;;;;;;;97.57;12.05;;;;;;;8.58;100.00;99693.94;5092484;28;20045;-80
2023/10/26 06:46:08;;;;;;;22.67;11.18;;;;;;;8.60;100.00;99699.53;5092198;28;20048;-79
2023/10/26 06:48:35;;;;;;;37.08;10.73;;;;;;;8.63;100.00;99698.63;5092981;28;20138;-78
2023/10/26 06:51:03;;;;;;;127.93;11.88;;;;;;;8.64;100.00;99700.84;5093228;28;20049;-79
2023/10/26 06:53:30;;;;;;;63.55;11.27;;;;;;;8.64;100.00;99695.53;5089378;28;20418;-79
2023/10/26 06:55:57;;;;;;;42.88;11.48;;;;;;;8.66;100.00;99695.09;5093254;28;20057;-78
2023/10/26 06:58:24;;;;;;;74.68;11.38;;;;;;;8.66;100.00;99695.81;5093218;28;20049;-79
2023/10/26 07:00:51;;;;;;;79.15;11.13;;;;;;;8.65;100.00;99699.66;5075003;28;20091;-78
2023/10/26 07:03:19;;;;;;;101.15;10.95;;;;;;;8.63;100.00;99699.38;5092243;28;20127;-78
2023/10/26 07:05:47;;;;;;;17.70;8.52;;;;;;;8.63;100.00;99698.63;5092243;28;20056;-79
2023/10/26 07:08:15;;;;;;;97.72;10.88;;;;;;;8.62;100.00;99694.53;5093450;28;20505;-80
2023/10/26 07:10:42;;;;;;;105.57;10.40;;;;;;;8.60;100.00;99689.66;5092173;28;20058;-78
2023/10/26 07:13:08;;;;;;;62.58;9.77;;;;;;;8.62;100.00;99691.88;5091808;28;20053;-79
2023/10/26 07:15:36;;;;;;;93.43;10.40;;;;;;;8.62;100.00;99697.16;5091699;28;20131;-79
2023/10/26 07:18:04;;;;;;;108.65;10.55;;;;;;;8.61;100.00;99695.69;5092125;28;20044;-79
2023/10/26 07:20:31;;;;;;;39.83;9.65;;;;;;;8.62;100.00;99695.25;5092200;28;20083;-78
2023/10/26 07:22:57;;;;;;;110.47;10.45;;;;;;;8.65;100.00;99702.31;5092982;28;20049;-79
2023/10/26 07:25:24;;;;;;;53.00;10.35;;;;;;;8.65;100.00;99696.28;5089765;28;20452;-79
2023/10/26 07:27:51;;;;;;;59.92;10.25;;;;;;;8.63;100.00;99696.72;5092857;28;20045;-79
2023/10/26 07:30:18;;;;;;;42.28;9.60;;;;;;;8.64;100.00;99694.81;5092066;28;20045;-79
2023/10/26 07:32:45;;;;;;;94.72;10.32;;;;;;;8.64;100.00;99689.50;5090506;28;20061;-77
2023/10/26 07:35:14;;;;;;;57.03;9.57;;;;;;;8.68;100.00;99690.06;5090739;28;20131;-79
2023/10/26 07:37:41;;;;;;;71.45;10.07;;;;;;;8.67;100.00;99691.25;5092150;28;20040;-79
2023/10/26 07:40:08;;;;;;;78.68;9.02;;;;;;;8.69;100.00;99692.28;5090426;28;20486;-80
2023/10/26 07:42:55;;;;;;;60.47;9.82;;;;;;;8.71;100.00;99688.44;5090667;28;20054;-79
2023/10/26 07:45:21;;;;;;;69.82;9.55;;;;;;;8.68;100.00;99690.06;5090983;28;20040;-77
2023/10/26 07:47:48;;;;;;;100.47;9.15;;;;;;;8.65;100.00;99693.63;5092439;28;20075;-78
2023/10/26 07:50:19;;;;;;;82.45;9.45;;;;;;;8.61;100.00;99690.41;5090008;28;20048;-81
2023/10/26 07:52:46;;;;;;;42.05;8.43;;;;;;;8.61;100.00;99687.75;5092634;28;20071;-81
2023/10/26 07:55:14;;;;;;;51.05;8.80;;;;;;;8.64;100.00;99697.47;5089809;28;20053;-81
2023/10/26 07:57:41;;;;;;;75.18;9.05;;;;;;;8.62;100.00;99699.81;5090623;28;20052;-79
2023/10/26 08:00:11;;;;;;;93.85;8.85;;;;;;;8.64;100.00;99697.47;5091493;28;20041;-80
2023/10/26 08:02:38;;;;;;;46.40;8.55;;;;;;;8.66;100.00;99705.69;5092728;28;20055;-79
2023/10/26 08:05:08;;;;;;;69.35;8.85;;;;;;;8.65;100.00;99712.19;5073454;28;20044;-80
2023/10/26 08:07:37;;;;;;;102.88;9.07;;;;;;;8.59;100.00;99716.63;5073242;28;20068;-81
2023/10/26 08:10:04;;;;;;;41.42;8.43;;;;;;;8.60;100.00;99715.47;5090960;28;20044;-79
2023/10/26 08:12:31;;;;;;;51.80;8.20;;;;;;;8.66;100.00;99718.97;5090374;28;20055;-78
2023/10/26 08:14:58;;;;;;;45.40;8.45;;;;;;;8.72;100.00;99711.88;5091111;28;20045;-79
2023/10/26 08:17:45;;;;;;;33.17;7.88;;;;;;;8.74;100.00;99711.41;5090622;28;20036;-79
2023/10/26 08:20:13;;;;;;;45.70;7.65;;;;;;;8.78;100.00;99715.38;5089820;28;21412;-79
2023/10/26 08:22:39;;;;;;;32.42;7.40;;;;;;;8.82;100.00;99710.59;5091279;28;20044;-79
2023/10/26 08:25:06;;;;;;;55.90;7.65;;;;;;;8.86;100.00;99710.44;5092073;28;20049;-79
2023/10/26 08:27:35;;;;;;;40.83;7.40;;;;;;;8.88;100.00;99708.06;5090867;28;20041;-79
2023/10/26 08:30:06;;;;;;;40.75;7.53;;;;;;;8.90;100.00;99713.66;5089343;28;20059;-79
2023/10/26 08:32:32;;;;;;;37.63;6.88;;;;;;;8.87;100.00;99722.53;5091072;28;20047;-79
2023/10/26 08:34:59;;;;;;;80.72;8.25;;;;;;;8.88;100.00;99726.66;5090831;28;20044;-80
2023/10/26 08:37:27;;;;;;;74.00;8.07;;;;;;;8.87;100.00;99728.56;5089454;28;20044;-80
2023/10/26 08:39:55;;;;;;;59.13;8.18;;;;;;;8.85;100.00;99732.84;5090606;28;20107;-80
2023/10/26 08:42:22;;;;;;;20.35;7.55;;;;;;;8.82;100.00;99747.75;5089545;28;20064;-78
2023/10/26 08:44:48;;;;;;;17.00;7.63;;;;;;;8.85;100.00;99733.59;5090986;28;20509;-78
2023/10/26 08:47:17;;;;;;;22.58;7.63;;;;;;;8.88;100.00;99745.22;5091024;28;20044;-78
2023/10/26 08:49:52;;;;;;;28.60;8.00;;;;;;;8.93;100.00;99745.34;5091429;28;20505;-78
2023/10/26 08:52:39;;;;;;;36.45;8.02;;;;;;;8.91;100.00;99739.75;5091610;28;20090;-80
2023/10/26 08:55:06;;;;;;;48.25;9.05;;;;;;;8.89;100.00;99739.47;5090177;28;20036;-80
2023/10/26 08:57:33;;;;;;;21.80;8.38;;;;;;;8.99;100.00;99742.81;5089036;28;20049;-76
2023/10/26 09:00:02;;;;;;;18.38;9.10;;;;;;;9.03;100.00;99740.72;5070388;28;20120;-79
2023/10/26 09:02:28;;;;;;;31.77;8.85;;;;;;;9.04;100.00;99744.84;5071786;28;20041;-79
2023/10/26 09:05:06;;;;;;;15.07;8.05;;;;;;;9.12;100.00;99751.28;5093700;28;20048;-79
2023/10/26 09:07:32;;;;;;;14.43;9.07;;;;;;;9.15;100.00;99758.34;5093170;28;20029;-79
2023/10/26 09:09:59;;;;;;;31.38;10.13;;;;;;;9.12;100.00;99755.88;5092221;28;20197;-79
2023/10/26 09:12:26;;;;;;;20.40;10.25;;;;;;;9.11;100.00;99749.81;5091917;28;20048;-79
2023/10/26 09:15:00;;;;;;;17.92;10.48;;;;;;;9.18;100.00;99751.41;5093995;28;20129;-79
2023/10/26 09:17:28;;;;;;;13.02;9.40;;;;;;;9.15;100.00;99744.34;5092524;28;20049;-79
2023/10/26 09:19:55;;;;;;;22.80;9.65;;;;;;;9.13;100.00;99734.16;5093772;28;20040;-79
2023/10/26 09:22:38;;;;;;;11.10;9.50;;;;;;;9.12;100.00;99738.00;5092284;28;20053;-79
2023/10/26 09:25:13;;;;;;;14.40;10.07;;;;;;;9.18;100.00;99743.44;5093350;28;20044;-83
2023/10/26 09:27:41;;;;;;;16.20;9.77;;;;;;;9.16;100.00;99735.94;5092731;28;20366;-81
2023/10/26 09:30:32;;;;;;;16.50;10.45;;;;;;;9.25;100.00;99740.41;5092403;28;20050;-79
2023/10/26 09:33:04;;;;;;;11.73;10.50;;;;;;;9.25;100.00;99748.38;5081876;28;20044;-79
2023/10/26 09:35:33;;;;;;;13.55;9.75;;;;;;;9.25;100.00;99738.50;5075540;28;20565;-77
2023/10/26 09:38:00;;;;;;;12.73;9.45;;;;;;;9.32;100.00;99737.41;5092456;28;20045;-78
2023/10/26 09:40:27;;;;;;;20.60;11.13;;;;;;;9.40;100.00;99738.53;5092988;28;20527;-77
2023/10/26 09:42:57;;;;;;;13.07;11.32;;;;;;;9.46;100.00;99733.34;5093536;28;20048;-77
2023/10/26 09:45:25;;;;;;;20.08;11.85;;;;;;;9.46;100.00;99733.34;5093532;28;20461;-77
2023/10/26 09:47:52;;;;;;;14.80;10.98;;;;;;;9.45;100.00;99737.91;5093957;28;20052;-78
2023/10/26 09:50:19;;;;;;;17.25;10.27;;;;;;;9.46;100.00;99733.34;5113677;27;20032;-78
2023/10/26 09:52:46;;;;;;;16.30;12.18;;;;;;;9.56;100.00;99726.75;5114443;27;20044;-77
2023/10/26 09:55:14;;;;;;;12.98;11.20;;;;;;;9.59;100.00;99728.50;5111193;28;20044;-78
2023/10/26 09:57:51;;;;;;;14.13;11.20;;;;;;;9.66;100.00;99718.22;5113559;27;20044;-78
2023/10/26 10:00:18;;;;;;;14.50;11.48;;;;;;;9.75;100.00;99716.69;5113808;27;20625;-78
2023/10/26 10:02:44;;;;;;;19.33;12.40;;;;;;;9.84;100.00;99706.69;5112566;28;20044;-77
2023/10/26 10:05:36;;;;;;;17.90;12.98;;;;;;;9.95;100.00;99706.88;5113288;27;20133;-79
2023/10/26 10:08:04;;;;;;;15.95;12.05;;;;;;;10.11;100.00;99707.59;5095187;28;20055;-77
2023/10/26 10:10:32;;;;;;;13.52;11.57;;;;;;;10.26;100.00;99711.00;5112841;27;20040;-77
2023/10/26 10:12:59;;;;;;;13.88;10.70;;;;;;;10.30;100.00;99712.28;5111269;27;20055;-81
2023/10/26 10:15:38;;;;;;;15.00;11.57;;;;;;;10.30;100.00;99717.59;5091767;28;20803;-78
2023/10/26 10:18:09;;;;;;;14.30;11.30;;;;;;;10.33;100.00;99706.03;5090584;28;20045;-79
2023/10/26 10:20:40;;;;;;;21.73;12.73;;;;;;;10.48;100.00;99708.66;5090239;28;20044;-77
2023/10/26 10:23:08;;;;;;;15.15;12.30;;;;;;;10.53;100.00;99705.34;5091273;28;20529;-78
2023/10/26 10:25:50;;;;;;;13.68;11.52;;;;;;;10.54;100.00;99701.47;5053226;28;20534;-81
2023/10/26 10:28:18;;;;;;;;;;;;;;;10.58;100.00;99695.97;5080317;28;20036;-79
2023/10/26 10:30:56;;;;;;;15.23;11.40;;;;;;;10.60;100.00;99686.31;5091418;28;19931;-78
2023/10/26 10:33:28;;;;;;;17.38;12.25;;;;;;;10.70;100.00;99678.94;5094012;28;20041;-78
2023/10/26 10:36:00;;;;;;;15.43;11.52;;;;;;;10.77;100.00;99675.16;5111433;28;20048;-78
2023/10/26 10:38:28;;;;;;;14.57;12.05;;;;;;;10.78;100.00;99679.28;5112616;27;20050;-77
2023/10/26 10:40:54;;;;;;;14.82;12.80;;;;;;;10.81;100.00;99673.75;5111899;28;20036;-78
2023/10/26 10:43:40;;;;;;;16.88;13.05;;;;;;;10.83;100.00;99684.66;5112781;27;20044;-78
2023/10/26 10:46:23;;;;;;;16.33;12.98;;;;;;;10.80;100.00;99682.94;5113021;27;20048;-78
2023/10/26 10:49:06;;;;;;;15.77;13.30;;;;;;;10.82;100.00;99674.47;5109331;28;20106;-80
2023/10/26 10:51:37;;;;;;;13.95;11.43;;;;;;;10.80;100.00;99663.56;5090809;28;20040;-79
2023/10/26 10:54:06;;;;;;;14.85;11.98;;;;;;;10.84;100.00;99664.09;5090626;28;20048;-78
2023/10/26 10:56:52;;;;;;;14.23;11.80;;;;;;;10.88;100.00;99667.28;5092352;28;20048;-76
2023/10/26 10:59:26;;;;;;;14.68;11.18;;;;;;;10.87;100.00;99663.16;5108846;28;20510;-77
2023/10/26 11:02:12;;;;;;;13.88;12.40;;;;;;;10.83;100.00;99666.03;5112543;27;20048;-75
2023/10/26 11:04:55;;;;;;;13.80;12.35;;;;;;;10.79;100.00;99654.88;5112138;27;20051;-76
2023/10/26 11:07:35;;;;;;;13.15;11.45;;;;;;;10.82;100.00;99658.50;5111904;27;20520;-76
2023/10/26 11:10:02;;;;;;;16.08;12.07;;;;;;;10.80;100.00;99664.28;5112697;27;20485;-76
2023/10/26 11:12:29;;;;;;;14.88;11.52;;;;;;;10.80;100.00;99658.22;5111801;27;20040;-77
2023/10/26 11:14:56;;;;;;;14.38;11.98;;;;;;;10.81;100.00;99660.44;5112425;27;20568;-77
2023/10/26 11:17:24;;;;;;;14.48;11.30;;;;;;;10.80;100.00;99658.97;5112178;27;20040;-76
2023/10/26 11:19:51;;;;;;;13.30;11.30;;;;;;;10.83;100.00;99657.31;5111063;28;20051;-76
2023/10/26 11:22:20;;;;;;;15.80;11.95;;;;;;;10.90;100.00;99662.22;5112151;27;20506;-76